Time;durP1;ratioP1;P1;durP2;ratioP2;P2;SDS_P1;SDS_P2;PMS_P1;PMS_P2;Temp;Humidity;BMP_temperature;BMP_pressure;BME280_temperature;BME280_humidity;BME280_pressure;Samples;Min_cycle;Max_cycle;Signal;HPM_P1;HPM_P2
2023/06/05 00:00:04;;;;;;;8.25;5.07;;;;;;;13.18;100.00;93569.78;5086952;28;20105;-73
2023/06/05 00:02:30;;;;;;;7.90;5.00;;;;;;;13.18;100.00;93568.97;5087431;28;20051;-73
2023/06/05 00:04:57;;;;;;;6.78;4.88;;;;;;;13.11;100.00;93569.06;5086431;28;20051;-73
2023/06/05 00:07:25;;;;;;;6.22;4.00;;;;;;;13.00;100.00;93549.94;5087021;28;20179;-73
2023/06/05 00:09:52;;;;;;;8.20;3.97;;;;;;;12.96;100.00;93569.41;5086905;28;20059;-73
2023/06/05 00:12:19;;;;;;;5.68;4.30;;;;;;;12.89;100.00;93568.72;5086987;28;20515;-73
2023/06/05 00:14:46;;;;;;;4.45;3.50;;;;;;;12.88;100.00;93564.56;5089362;28;20134;-73
2023/06/05 00:17:13;;;;;;;4.97;3.45;;;;;;;12.83;100.00;93560.81;5091064;28;20120;-73
2023/06/05 00:19:40;;;;;;;6.18;3.70;;;;;;;12.79;100.00;93553.75;5091168;28;20044;-73
2023/06/05 00:22:07;;;;;;;4.45;3.35;;;;;;;12.76;100.00;93561.91;5090613;28;20048;-73
2023/06/05 00:24:35;;;;;;;4.95;3.08;;;;;;;12.73;100.00;93565.69;5091512;28;20048;-72
2023/06/05 00:27:02;;;;;;;4.82;3.30;;;;;;;12.72;100.00;93558.97;5104751;28;20157;-73
2023/06/05 00:29:29;;;;;;;5.05;3.72;;;;;;;12.70;100.00;93554.00;5091303;28;20056;-73
2023/06/05 00:31:55;;;;;;;5.13;3.22;;;;;;;12.71;100.00;93557.38;5091168;28;20133;-73
2023/06/05 00:34:22;;;;;;;6.00;3.53;;;;;;;12.75;100.00;93565.47;5090836;28;20048;-73
2023/06/05 00:36:50;;;;;;;5.75;3.45;;;;;;;12.75;100.00;93566.28;5091225;28;20680;-73
2023/06/05 00:39:18;;;;;;;3.95;3.30;;;;;;;12.71;100.00;93562.53;5090860;28;20106;-73
2023/06/05 00:41:47;;;;;;;4.75;3.75;;;;;;;12.68;100.00;93571.50;5090610;28;20040;-73
2023/06/05 00:44:13;;;;;;;5.97;4.13;;;;;;;12.53;100.00;93568.47;5090409;28;20085;-73
2023/06/05 00:46:40;;;;;;;5.22;3.75;;;;;;;12.52;100.00;93567.69;5090444;28;20052;-73
2023/06/05 00:49:08;;;;;;;6.05;3.65;;;;;;;12.45;100.00;93556.63;5090269;28;20089;-73
2023/06/05 00:51:35;;;;;;;5.25;4.15;;;;;;;12.48;100.00;93558.78;5090517;28;20438;-73
2023/06/05 00:54:02;;;;;;;6.32;4.57;;;;;;;12.46;100.00;93558.22;5089951;28;20822;-73
2023/06/05 00:56:29;;;;;;;5.57;4.38;;;;;;;12.46;100.00;93557.44;5090189;28;20843;-73
2023/06/05 00:58:58;;;;;;;6.28;5.32;;;;;;;12.33;100.00;93535.94;5089681;28;21031;-73
2023/06/05 01:01:28;;;;;;;6.80;4.15;;;;;;;12.45;100.00;93548.13;5089795;28;20044;-73
2023/06/05 01:03:57;;;;;;;6.22;4.80;;;;;;;12.45;100.00;93550.72;5089833;28;20511;-73
2023/06/05 01:06:24;;;;;;;6.07;4.13;;;;;;;12.39;100.00;93540.25;5090572;28;20040;-73
2023/06/05 01:08:52;;;;;;;6.60;4.32;;;;;;;12.38;100.00;93538.69;5090382;28;20044;-73
2023/06/05 01:11:25;;;;;;;4.72;3.95;;;;;;;12.40;100.00;93534.09;5090261;28;20149;-73
2023/06/05 01:14:00;;;;;;;6.38;4.85;;;;;;;12.35;100.00;93530.59;5090124;28;20040;-73
2023/06/05 01:16:30;;;;;;;6.10;4.00;;;;;;;12.31;100.00;93529.44;5089397;28;20052;-73
2023/06/05 01:19:02;;;;;;;4.85;3.67;;;;;;;12.29;100.00;93519.34;5089979;28;20074;-73
2023/06/05 01:21:30;;;;;;;6.03;4.30;;;;;;;12.09;100.00;93489.38;5090053;28;20040;-73
2023/06/05 01:23:59;;;;;;;8.40;5.10;;;;;;;12.28;100.00;93523.69;5090015;28;20627;-73
2023/06/05 01:26:37;;;;;;;6.03;4.20;;;;;;;12.30;100.00;93515.75;5089247;28;20040;-73
2023/06/05 01:29:09;;;;;;;6.35;4.55;;;;;;;12.26;100.00;93502.50;5089652;28;20044;-73
2023/06/05 01:31:39;;;;;;;8.38;5.13;;;;;;;12.27;100.00;93511.03;5089575;28;20404;-73
2023/06/05 01:34:12;;;;;;;10.35;4.20;;;;;;;12.27;100.00;93519.53;5089363;28;20051;-73
2023/06/05 01:36:41;;;;;;;7.53;4.55;;;;;;;12.24;100.00;93512.25;5089439;28;20635;-73
2023/06/05 01:39:10;;;;;;;5.63;4.60;;;;;;;12.14;100.00;93509.38;5089798;28;20052;-73
2023/06/05 01:41:38;;;;;;;6.13;4.30;;;;;;;12.08;100.00;93511.00;5089740;28;20094;-73
2023/06/05 01:44:08;;;;;;;5.50;3.90;;;;;;;12.10;100.00;93516.72;5089236;28;20059;-73
2023/06/05 01:46:35;;;;;;;8.52;4.40;;;;;;;12.07;100.00;93513.78;5089357;28;20056;-73
2023/06/05 01:49:03;;;;;;;5.65;3.90;;;;;;;12.02;100.00;93516.94;5089529;28;20063;-73
2023/06/05 01:51:30;;;;;;;6.70;4.55;;;;;;;11.92;100.00;93516.63;5089263;28;20047;-73
2023/06/05 01:53:57;;;;;;;8.13;5.88;;;;;;;11.81;100.00;93502.66;5089402;28;20036;-73
2023/06/05 01:56:26;;;;;;;7.53;5.10;;;;;;;11.89;100.00;93507.53;5089046;28;20139;-73
2023/06/05 01:58:54;;;;;;;7.45;5.13;;;;;;;11.81;100.00;93508.59;5085339;28;20094;-73
2023/06/05 02:01:22;;;;;;;6.75;5.13;;;;;;;11.84;100.00;93520.25;5088851;28;20040;-72
2023/06/05 02:03:49;;;;;;;6.68;5.40;;;;;;;11.80;100.00;93522.47;5088566;28;20055;-72
2023/06/05 02:06:16;;;;;;;6.32;4.88;;;;;;;11.77;100.00;93512.59;5089024;28;20435;-73
2023/06/05 02:08:44;;;;;;;8.73;5.82;;;;;;;11.72;100.00;93504.72;5089271;28;20048;-73
2023/06/05 02:11:11;;;;;;;6.25;5.05;;;;;;;11.76;100.00;93511.81;5088541;28;20424;-73
2023/06/05 02:13:40;;;;;;;7.05;5.28;;;;;;;11.77;100.00;93510.03;5088266;28;20048;-73
2023/06/05 02:16:13;;;;;;;7.53;4.85;;;;;;;11.77;100.00;93508.22;5088634;28;20101;-72
2023/06/05 02:18:39;;;;;;;6.32;4.70;;;;;;;11.74;100.00;93511.22;5089056;28;20048;-72
2023/06/05 02:21:06;;;;;;;6.18;4.90;;;;;;;11.69;100.00;93515.41;5088618;28;20048;-73
2023/06/05 02:23:33;;;;;;;7.10;4.63;;;;;;;11.64;100.00;93510.91;5089031;28;20048;-72
2023/06/05 02:26:00;;;;;;;6.40;4.78;;;;;;;11.72;100.00;93525.31;5088719;28;20466;-72
2023/06/05 02:28:28;;;;;;;6.35;5.03;;;;;;;11.72;100.00;93525.31;5088181;28;20052;-73
2023/06/05 02:30:56;;;;;;;5.28;4.50;;;;;;;11.72;100.00;93520.16;5088459;28;20097;-73
2023/06/05 02:33:24;;;;;;;6.22;4.70;;;;;;;11.69;100.00;93520.56;5088752;28;20048;-73
2023/06/05 02:35:51;;;;;;;6.00;4.55;;;;;;;11.69;100.00;93513.63;5088688;28;20044;-72
2023/06/05 02:38:18;;;;;;;5.60;4.60;;;;;;;11.67;100.00;93523.34;5087439;28;20413;-72
2023/06/05 02:40:45;;;;;;;7.05;4.53;;;;;;;11.54;100.00;93498.50;5088803;28;20093;-72
2023/06/05 02:43:14;;;;;;;5.88;4.20;;;;;;;11.60;100.00;93502.81;5087925;28;20058;-73
2023/06/05 02:45:41;;;;;;;5.47;3.53;;;;;;;11.64;100.00;93508.34;5087944;28;20130;-73
2023/06/05 02:48:09;;;;;;;6.07;4.38;;;;;;;11.62;100.00;93511.09;5088388;28;20063;-73
2023/06/05 02:50:36;;;;;;;5.68;4.07;;;;;;;11.61;100.00;93506.97;5087818;28;20043;-73
2023/06/05 02:53:03;;;;;;;6.55;5.13;;;;;;;11.67;100.00;93513.03;5088188;28;20048;-73
2023/06/05 02:55:32;;;;;;;5.38;3.95;;;;;;;11.69;100.00;93511.06;5088250;28;20055;-73
2023/06/05 02:57:59;;;;;;;7.05;5.32;;;;;;;11.68;100.00;93509.50;5087594;28;20048;-73
2023/06/05 03:00:26;;;;;;;8.93;4.95;;;;;;;11.66;100.00;93515.84;5087829;28;20574;-73
2023/06/05 03:02:53;;;;;;;6.65;4.28;;;;;;;11.60;100.00;93507.97;5087969;28;20052;-73
2023/06/05 03:05:24;;;;;;;8.35;5.05;;;;;;;11.57;100.00;93508.38;5088183;28;20097;-72
2023/06/05 03:07:52;;;;;;;10.18;5.70;;;;;;;11.71;100.00;93534.03;5087849;28;20083;-72
2023/06/05 03:10:20;;;;;;;11.85;6.25;;;;;;;11.75;100.00;93527.44;5087670;28;20044;-72
2023/06/05 03:12:46;;;;;;;11.23;6.85;;;;;;;11.74;100.00;93524.09;5087808;28;20455;-73
2023/06/05 03:15:13;;;;;;;8.05;5.97;;;;;;;11.75;100.00;93530.00;5087377;28;20044;-73
2023/06/05 03:17:41;;;;;;;9.85;6.72;;;;;;;11.75;100.00;93530.81;5087718;28;20059;-73
2023/06/05 03:20:09;;;;;;;17.10;10.68;;;;;;;11.68;100.00;93519.00;5087375;28;20058;-72
2023/06/05 03:22:38;;;;;;;15.15;9.80;;;;;;;11.80;100.00;93530.19;5087503;28;20047;-73
2023/06/05 03:25:05;;;;;;;15.25;9.35;;;;;;;11.85;100.00;93525.19;5087817;28;20865;-72
2023/06/05 03:27:32;;;;;;;12.60;8.15;;;;;;;11.61;100.00;93483.81;5086858;28;20048;-72
2023/06/05 03:29:59;;;;;;;14.38;7.70;;;;;;;11.92;100.00;93522.59;5087514;28;20458;-72
2023/06/05 03:32:26;;;;;;;18.83;9.82;;;;;;;11.95;100.00;93534.25;5088871;28;20131;-72
2023/06/05 03:34:53;;;;;;;10.98;7.32;;;;;;;11.98;100.00;93542.34;5094496;28;20048;-72
2023/06/05 03:37:19;;;;;;;12.45;7.63;;;;;;;12.07;100.00;93535.16;5074137;28;20048;-72
2023/06/05 03:39:47;;;;;;;11.60;7.40;;;;;;;12.11;100.00;93535.53;5087728;28;20048;-72
2023/06/05 03:42:14;;;;;;;12.07;7.97;;;;;;;12.15;100.00;93534.13;5073966;28;20048;-72
2023/06/05 03:44:41;;;;;;;11.90;7.43;;;;;;;12.23;100.00;93531.25;5087073;28;20491;-72
2023/06/05 03:47:08;;;;;;;11.13;7.68;;;;;;;12.26;100.00;93530.84;5087583;28;20048;-72
2023/06/05 03:49:35;;;;;;;11.77;7.63;;;;;;;12.31;100.00;93537.94;5087412;28;20055;-72
2023/06/05 03:52:02;;;;;;;15.57;8.52;;;;;;;12.39;100.00;93547.19;5086713;28;20057;-72
2023/06/05 03:54:32;;;;;;;12.05;7.57;;;;;;;12.41;100.00;93543.38;5087646;28;20054;-72
2023/06/05 03:57:02;;;;;;;10.25;6.75;;;;;;;12.52;100.00;93541.91;5086488;28;20139;-72
2023/06/05 03:59:29;;;;;;;11.82;7.00;;;;;;;12.60;100.00;93533.13;5077278;28;20040;-72
2023/06/05 04:01:56;;;;;;;10.52;6.88;;;;;;;12.66;100.00;93534.03;5086928;28;20714;-72
2023/06/05 04:04:23;;;;;;;8.77;6.50;;;;;;;12.74;100.00;93536.34;5087019;28;20832;-72
2023/06/05 04:06:50;;;;;;;10.75;6.80;;;;;;;12.80;100.00;93532.91;5087549;28;20048;-72
2023/06/05 04:09:17;;;;;;;12.23;7.57;;;;;;;12.82;100.00;93535.25;5087458;28;20059;-72
2023/06/05 04:11:45;;;;;;;12.50;7.65;;;;;;;12.89;100.00;93530.84;5077292;28;20757;-73
2023/06/05 04:14:14;;;;;;;17.23;8.02;;;;;;;13.00;100.00;93533.69;5067290;28;20137;-73
2023/06/05 04:16:42;;;;;;;14.75;7.45;;;;;;;13.07;100.00;93530.03;5067254;28;20102;-73
2023/06/05 04:19:10;;;;;;;13.07;7.57;;;;;;;13.11;100.00;93535.53;5066774;28;20552;-73
2023/06/05 04:21:38;;;;;;;13.77;7.35;;;;;;;13.09;100.00;93522.06;5073342;28;20040;-73
2023/06/05 04:24:07;;;;;;;11.25;7.68;;;;;;;13.23;100.00;93541.53;5087602;28;20056;-74
2023/06/05 04:26:34;;;;;;;11.90;7.38;;;;;;;13.31;100.00;93542.25;5087034;28;20492;-73
2023/06/05 04:29:09;;;;;;;10.25;7.30;;;;;;;13.30;100.00;93527.78;5087492;28;20048;-73
2023/06/05 04:31:40;;;;;;;13.10;8.20;;;;;;;13.41;100.00;93537.34;5087165;28;20052;-73
2023/06/05 04:34:08;;;;;;;15.35;8.70;;;;;;;13.48;100.00;93534.72;5087037;28;20484;-74
2023/06/05 04:36:36;;;;;;;11.43;7.43;;;;;;;13.52;100.00;93532.47;5087037;28;20093;-74
2023/06/05 04:39:04;;;;;;;12.57;7.03;;;;;;;13.59;100.00;93539.13;5069153;28;20056;-73
2023/06/05 04:41:32;;;;;;;12.18;8.00;;;;;;;13.63;100.00;93537.69;5067091;28;20037;-74
2023/06/05 04:44:00;;;;;;;12.43;8.02;;;;;;;13.70;100.00;93532.41;5066806;28;20420;-74
2023/06/05 04:46:27;;;;;;;13.00;7.72;;;;;;;13.75;100.00;93531.75;5075976;28;20095;-73
2023/06/05 04:48:57;;;;;;;13.13;8.25;;;;;;;13.85;100.00;93541.53;5086602;28;20052;-73
2023/06/05 04:51:24;;;;;;;17.02;7.75;;;;;;;13.93;100.00;93541.22;5086855;28;20565;-74
2023/06/05 04:53:52;;;;;;;14.18;7.88;;;;;;;14.00;100.00;93547.09;5086720;28;20059;-74
2023/06/05 04:56:20;;;;;;;12.05;8.10;;;;;;;13.98;100.00;93530.22;5087080;28;20139;-74
2023/06/05 04:58:50;;;;;;;12.98;7.80;;;;;;;14.06;100.00;93545.41;5086967;28;20059;-73
2023/06/05 05:01:17;;;;;;;18.15;8.57;;;;;;;14.10;100.00;93541.38;5087747;28;20070;-74
2023/06/05 05:03:45;;;;;;;15.63;8.40;;;;;;;14.18;100.00;93545.41;5090597;28;20040;-74
2023/06/05 05:06:16;;;;;;;15.45;8.43;;;;;;;14.26;100.00;93546.88;5090573;28;20411;-74
2023/06/05 05:08:44;;;;;;;16.75;7.85;;;;;;;14.28;100.00;93540.50;5090293;28;20132;-74
2023/06/05 05:11:12;;;;;;;15.07;7.95;;;;;;;14.30;100.00;93532.50;5090226;28;20051;-74
2023/06/05 05:13:39;;;;;;;13.50;7.45;;;;;;;14.38;100.00;93536.53;5090506;28;20052;-74
2023/06/05 05:16:07;;;;;;;17.10;8.25;;;;;;;14.45;100.00;93533.84;5090425;28;20048;-74
2023/06/05 05:18:34;;;;;;;12.68;6.72;;;;;;;14.53;100.00;93538.66;5090561;28;20055;-74
2023/06/05 05:21:04;;;;;;;14.20;7.72;;;;;;;14.61;100.00;93534.94;5090253;28;20093;-74
2023/06/05 05:23:36;;;;;;;13.27;7.57;;;;;;;14.50;100.00;93532.19;5090093;28;20052;-74
2023/06/05 05:26:04;;;;;;;18.05;8.82;;;;;;;14.68;100.00;93522.72;5090200;28;20043;-74
2023/06/05 05:28:31;;;;;;;16.92;8.98;;;;;;;14.77;100.00;93513.59;5089678;28;20497;-74
2023/06/05 05:31:00;;;;;;;15.35;8.75;;;;;;;14.77;100.00;93518.78;5090219;28;20097;-74
2023/06/05 05:33:27;;;;;;;14.57;7.95;;;;;;;14.82;100.00;93515.53;5089771;28;20047;-74
2023/06/05 05:35:54;;;;;;;14.98;8.05;;;;;;;14.82;100.00;93518.09;5089652;28;20048;-74
2023/06/05 05:38:21;;;;;;;15.38;7.97;;;;;;;15.00;100.00;93514.56;5089711;28;20056;-75
2023/06/05 05:40:49;;;;;;;12.55;7.38;;;;;;;14.79;100.00;93515.97;5090572;28;20055;-74
2023/06/05 05:43:17;;;;;;;15.02;9.13;;;;;;;14.89;100.00;93513.59;5073584;28;20366;-74
2023/06/05 05:45:44;;;;;;;12.43;7.43;;;;;;;15.09;100.00;93515.78;5071859;28;20488;-74
2023/06/05 05:48:11;;;;;;;16.75;9.02;;;;;;;15.34;100.00;93509.53;5089729;28;20043;-74
2023/06/05 05:50:38;;;;;;;12.82;7.88;;;;;;;15.44;100.00;93515.88;5089799;28;20410;-74
2023/06/05 05:53:05;;;;;;;13.15;7.38;;;;;;;15.54;100.00;93512.66;5089298;28;20052;-74
2023/06/05 05:55:32;;;;;;;12.10;8.35;;;;;;;15.68;100.00;93513.16;5089181;28;20781;-74
2023/06/05 05:58:00;;;;;;;12.30;8.85;;;;;;;15.83;100.00;93515.25;5089328;28;20056;-74
2023/06/05 06:00:28;;;;;;;12.20;8.00;;;;;;;15.91;100.00;93525.19;5089184;28;20047;-74
2023/06/05 06:02:54;;;;;;;17.45;9.68;;;;;;;15.46;100.00;93499.09;5089188;28;20097;-74
2023/06/05 06:05:21;;;;;;;22.70;11.77;;;;;;;15.43;100.00;93501.38;5089108;28;20036;-74
2023/06/05 06:07:48;;;;;;;13.30;8.95;;;;;;;15.42;100.00;93504.97;5088913;28;20044;-74
2023/06/05 06:10:15;;;;;;;15.57;9.65;;;;;;;15.25;100.00;93518.66;5089155;28;20085;-73
2023/06/05 06:12:42;;;;;;;14.40;9.90;;;;;;;15.39;100.00;93510.59;5089249;28;20416;-74
2023/06/05 06:15:11;;;;;;;19.13;12.55;;;;;;;15.31;100.00;93509.97;5089400;28;20043;-73
2023/06/05 06:17:38;;;;;;;20.05;12.05;;;;;;;15.17;100.00;93506.06;5088829;28;20047;-73
2023/06/05 06:20:06;;;;;;;20.27;12.90;;;;;;;15.34;100.00;93501.75;5075336;28;20049;-74
2023/06/05 06:22:33;;;;;;;22.17;12.40;;;;;;;15.43;100.00;93504.75;5088792;28;20101;-73
2023/06/05 06:25:00;;;;;;;17.85;12.13;;;;;;;15.80;100.00;93502.75;5088751;28;20110;-73
2023/06/05 06:27:27;;;;;;;18.80;12.50;;;;;;;16.12;100.00;93504.81;5094108;28;20427;-74
2023/06/05 06:29:53;;;;;;;21.15;12.55;;;;;;;16.59;100.00;93511.44;5088385;28;20048;-74
2023/06/05 06:32:22;;;;;;;19.10;12.25;;;;;;;17.03;100.00;93507.34;5088502;28;20051;-74
2023/06/05 06:34:50;;;;;;;21.05;12.40;;;;;;;17.41;100.00;93515.25;5088591;28;20377;-73
2023/06/05 06:37:17;;;;;;;21.02;12.52;;;;;;;17.33;100.00;93514.66;5088749;28;20143;-73
2023/06/05 06:39:44;;;;;;;18.67;11.50;;;;;;;17.47;100.00;93501.28;5078895;28;20044;-74
2023/06/05 06:42:12;;;;;;;17.50;11.05;;;;;;;17.86;100.00;93511.50;5082314;28;20083;-74
2023/06/05 06:44:39;;;;;;;17.05;10.85;;;;;;;18.16;100.00;93509.41;5088640;28;20044;-74
2023/06/05 06:47:06;;;;;;;20.10;11.18;;;;;;;18.30;100.00;93518.34;5088524;28;20052;-73
2023/06/05 06:49:34;;;;;;;18.58;11.35;;;;;;;18.69;100.00;93516.50;5088151;28;20051;-74
2023/06/05 06:52:01;;;;;;;14.55;9.70;;;;;;;19.04;100.00;93514.34;5088571;28;20075;-73
2023/06/05 06:54:29;;;;;;;15.80;9.45;;;;;;;19.38;100.00;93513.91;5088879;28;20496;-73
2023/06/05 06:56:56;;;;;;;18.00;9.55;;;;;;;19.44;100.00;93518.09;5088994;28;20574;-74
2023/06/05 06:59:23;;;;;;;15.13;9.15;;;;;;;19.50;100.00;93514.44;5088352;28;20567;-74
2023/06/05 07:02:13;;;;;;;21.58;10.77;;;;;;;19.89;100.00;93520.25;5088408;28;20055;-74
2023/06/05 07:04:43;;;;;;;36.30;14.68;;;;;;;20.15;100.00;93507.25;5087509;28;20578;-74
2023/06/05 07:07:11;;;;;;;32.00;12.75;;;;;;;20.50;100.00;93520.50;5087826;28;20052;-74
2023/06/05 07:09:38;;;;;;;42.25;16.05;;;;;;;20.59;100.00;93524.13;5087800;28;20058;-74
2023/06/05 07:12:06;;;;;;;32.58;13.00;;;;;;;20.54;100.00;93519.72;5087856;28;20059;-74
2023/06/05 07:14:33;;;;;;;37.53;13.70;;;;;;;20.63;100.00;93527.78;5087496;28;20518;-73
2023/06/05 07:17:01;;;;;;;28.73;12.93;;;;;;;20.59;100.00;93518.13;5087777;28;20131;-74
2023/06/05 07:19:28;;;;;;;38.88;13.63;;;;;;;20.73;100.00;93534.03;5087533;28;20054;-74
2023/06/05 07:21:58;;;;;;;30.60;14.27;;;;;;;20.85;100.00;93537.16;5087552;28;20420;-74
2023/06/05 07:24:25;;;;;;;24.67;12.25;;;;;;;20.70;100.00;93541.31;5087720;28;20044;-73
2023/06/05 07:26:55;;;;;;;24.80;11.70;;;;;;;20.56;100.00;93529.88;5087461;28;20048;-73
2023/06/05 07:29:22;;;;;;;29.95;13.82;;;;;;;20.52;100.00;93547.09;5087903;28;20052;-73
2023/06/05 07:31:49;;;;;;;24.58;13.20;;;;;;;20.62;100.00;93539.25;5087380;28;20052;-73
2023/06/05 07:34:16;;;;;;;27.50;12.75;;;;;;;20.49;100.00;93551.03;5087376;28;20055;-74
2023/06/05 07:36:45;;;;;;;15.32;10.13;;;;;;;20.55;100.00;93549.19;5087802;28;20435;-74
2023/06/05 07:39:13;;;;;;;19.35;10.90;;;;;;;20.32;100.00;93553.13;5087280;28;20439;-73
2023/06/05 07:41:40;;;;;;;16.15;9.63;;;;;;;20.42;100.00;93542.69;5087438;28;20497;-73
2023/06/05 07:44:09;;;;;;;17.40;10.43;;;;;;;20.73;100.00;93553.06;5087655;28;20415;-74
2023/06/05 07:46:36;;;;;;;17.67;9.82;;;;;;;20.83;100.00;93547.81;5087367;28;20056;-73
2023/06/05 07:49:03;;;;;;;23.70;10.88;;;;;;;20.21;100.00;93557.56;5087057;28;20048;-73
2023/06/05 07:51:33;;;;;;;18.48;9.32;;;;;;;20.25;100.00;93561.22;5087420;28;20462;-74
2023/06/05 07:54:00;;;;;;;17.63;10.20;;;;;;;19.93;100.00;93557.00;5087434;28;20082;-74
2023/06/05 07:56:28;;;;;;;25.67;9.70;;;;;;;20.09;100.00;93555.22;5087688;28;20123;-74
2023/06/05 07:58:55;;;;;;;20.70;9.73;;;;;;;20.36;100.00;93562.00;5087387;28;20051;-74
2023/06/05 08:01:22;;;;;;;18.00;10.05;;;;;;;20.41;100.00;93552.34;5087466;28;20044;-74
2023/06/05 08:03:48;;;;;;;17.48;10.13;;;;;;;20.51;100.00;93563.81;5086726;28;20381;-74
2023/06/05 08:06:15;;;;;;;16.05;8.90;;;;;;;20.55;100.00;93563.00;5087693;28;20055;-74
2023/06/05 08:08:43;;;;;;;14.43;8.63;;;;;;;20.10;100.00;93559.41;5087226;28;20100;-73
2023/06/05 08:11:10;;;;;;;14.73;9.35;;;;;;;20.27;100.00;93553.94;5087434;28;20059;-74
2023/06/05 08:13:39;;;;;;;17.38;10.82;;;;;;;20.52;100.00;93550.50;5086977;28;20050;-74
2023/06/05 08:16:07;;;;;;;18.02;9.65;;;;;;;20.78;100.00;93550.44;5086729;28;20087;-74
2023/06/05 08:18:34;;;;;;;13.38;8.45;;;;;;;20.90;100.00;93558.03;5087102;28;20052;-74
2023/06/05 08:21:00;;;;;;;14.43;8.73;;;;;;;20.55;100.00;93568.25;5087158;28;20048;-74
2023/06/05 08:23:27;;;;;;;17.65;9.32;;;;;;;20.64;100.00;93572.94;5086921;28;20055;-74
2023/06/05 08:25:55;;;;;;;14.02;8.43;;;;;;;21.08;100.00;93572.34;5086571;28;20135;-74
2023/06/05 08:28:21;;;;;;;14.85;9.65;;;;;;;21.36;100.00;93577.19;5087296;28;20047;-74
2023/06/05 08:30:51;;;;;;;15.13;9.23;;;;;;;21.11;100.00;93580.69;5086422;28;20048;-74
2023/06/05 08:33:18;;;;;;;11.57;7.65;;;;;;;21.61;100.00;93580.72;5086976;28;20142;-73
2023/06/05 08:35:45;;;;;;;15.30;9.35;;;;;;;21.92;100.00;93585.81;5086255;28;20089;-74
2023/06/05 08:38:12;;;;;;;13.40;8.38;;;;;;;21.67;100.00;93582.28;5091276;28;20408;-74
2023/06/05 08:40:40;;;;;;;15.82;7.72;;;;;;;21.80;100.00;93583.53;5090620;28;20048;-74
2023/06/05 08:43:07;;;;;;;15.30;8.48;;;;;;;22.32;100.00;93575.34;5090739;28;20044;-74
2023/06/05 08:45:34;;;;;;;11.80;7.63;;;;;;;22.78;100.00;93576.75;5090054;28;20044;-73
2023/06/05 08:48:02;;;;;;;14.43;7.68;;;;;;;22.90;100.00;93575.59;5083933;28;20044;-74
2023/06/05 08:50:30;;;;;;;12.70;7.22;;;;;;;23.13;100.00;93581.16;5079758;28;20051;-74
2023/06/05 08:53:00;;;;;;;13.52;6.65;;;;;;;23.32;100.00;93583.81;5090618;28;20476;-74
2023/06/05 08:55:27;;;;;;;11.68;6.50;;;;;;;23.59;99.92;93579.81;5090793;28;20040;-74
2023/06/05 08:57:54;;;;;;;12.00;7.40;;;;;;;23.48;92.93;93576.56;5090154;28;20592;-74
2023/06/05 09:00:22;;;;;;;9.60;6.40;;;;;;;23.33;96.36;93573.06;5090427;28;20390;-74
2023/06/05 09:02:50;;;;;;;10.60;6.00;;;;;;;23.33;94.40;93574.91;5090419;28;20048;-75
2023/06/05 09:05:18;;;;;;;11.77;6.72;;;;;;;22.68;92.94;93572.41;5089988;28;20048;-74
2023/06/05 09:07:46;;;;;;;8.13;5.43;;;;;;;22.46;97.12;93577.31;5090393;28;20044;-73
2023/06/05 09:10:26;;;;;;;10.77;6.60;;;;;;;22.94;96.80;93574.78;5090184;28;20052;-74
2023/06/05 09:12:57;;;;;;;12.10;6.43;;;;;;;22.57;98.00;93570.94;5089699;28;20059;-74
2023/06/05 09:15:25;;;;;;;12.90;7.38;;;;;;;22.51;99.61;93569.41;5089944;28;20063;-74
2023/06/05 09:18:08;;;;;;;11.07;6.93;;;;;;;21.99;99.32;93569.81;5090207;28;20439;-74
2023/06/05 09:20:38;;;;;;;9.98;6.38;;;;;;;22.16;100.00;93562.38;5090001;28;20052;-74
2023/06/05 09:23:06;;;;;;;9.98;5.90;;;;;;;22.59;100.00;93568.06;5090305;28;20123;-74
2023/06/05 09:25:48;;;;;;;8.35;5.60;;;;;;;22.68;97.68;93555.94;5089739;28;20051;-74
2023/06/05 09:28:16;;;;;;;8.63;5.80;;;;;;;22.97;94.45;93562.97;5089947;28;20052;-74
2023/06/05 09:31:01;;;;;;;9.20;5.43;;;;;;;23.32;100.00;93561.03;5089072;28;20520;-74
2023/06/05 09:33:29;;;;;;;8.43;5.32;;;;;;;23.47;96.54;93564.53;5089900;28;20444;-74
2023/06/05 09:36:08;;;;;;;9.73;5.88;;;;;;;23.41;95.75;93563.03;5089906;28;20044;-74
2023/06/05 09:38:36;;;;;;;7.70;5.35;;;;;;;24.04;94.02;93561.13;5089590;28;20044;-74
2023/06/05 09:41:05;;;;;;;11.70;6.55;;;;;;;24.52;95.47;93554.84;5089783;28;20063;-74
2023/06/05 09:43:32;;;;;;;9.32;5.97;;;;;;;24.79;91.05;93558.59;5089384;28;20052;-74
2023/06/05 09:45:58;;;;;;;9.45;6.22;;;;;;;25.03;92.77;93544.53;5089644;28;20109;-74
2023/06/05 09:48:26;;;;;;;8.63;5.80;;;;;;;24.38;85.18;93551.41;5089319;28;20480;-74
2023/06/05 09:50:54;;;;;;;10.30;6.20;;;;;;;23.90;87.71;93555.81;5089249;28;20461;-74
2023/06/05 09:53:23;;;;;;;8.00;5.22;;;;;;;24.24;89.06;93543.50;5089571;28;20067;-74
2023/06/05 09:55:50;;;;;;;10.95;6.30;;;;;;;23.96;86.52;93544.16;5089158;28;20412;-74
2023/06/05 09:58:20;;;;;;;8.15;5.68;;;;;;;23.87;86.58;93543.25;5089313;28;20048;-75
2023/06/05 10:00:47;;;;;;;9.35;5.93;;;;;;;23.97;88.99;93539.72;5088910;28;20052;-74
2023/06/05 10:03:18;;;;;;;10.85;6.10;;;;;;;23.97;83.77;93527.34;5088915;28;20408;-75
2023/06/05 10:05:46;;;;;;;8.80;6.03;;;;;;;24.20;86.91;93526.78;5088909;28;20537;-74
2023/06/05 10:08:14;;;;;;;8.98;5.45;;;;;;;24.21;79.25;93541.47;5088983;28;20113;-75
2023/06/05 10:10:43;;;;;;;7.32;5.53;;;;;;;25.07;86.29;93534.19;5089246;28;20044;-75
2023/06/05 10:13:11;;;;;;;8.30;5.60;;;;;;;25.65;83.28;93531.22;5088969;28;20043;-74
2023/06/05 10:15:40;;;;;;;9.50;5.90;;;;;;;26.03;81.72;93520.38;5088721;28;20048;-74
2023/06/05 10:18:07;;;;;;;6.00;4.82;;;;;;;26.55;78.35;93522.56;5088876;28;20040;-74
2023/06/05 10:20:36;;;;;;;6.90;5.07;;;;;;;26.58;72.58;93523.81;5088418;28;20063;-75
2023/06/05 10:23:05;;;;;;;8.20;4.75;;;;;;;26.32;68.81;93527.06;5088925;28;20128;-74
2023/06/05 10:25:34;;;;;;;8.02;5.07;;;;;;;26.72;70.13;93525.56;5089178;28;20587;-75
2023/06/05 10:28:32;;;;;;;5.60;4.18;;;;;;;26.76;66.14;93524.63;5088037;28;20047;-74
2023/06/05 10:31:28;;;;;;;7.63;4.88;;;;;;;26.68;73.28;93509.59;5088246;28;20044;-74
2023/06/05 10:34:23;;;;;;;7.00;4.97;;;;;;;26.99;70.05;93502.72;5071003;28;20432;-75
2023/06/05 10:37:07;;;;;;;8.20;4.88;;;;;;;26.36;68.09;93493.78;5088594;28;20134;-75
2023/06/05 10:39:35;;;;;;;6.63;5.15;;;;;;;26.36;72.82;93495.63;5088029;28;20083;-74
2023/06/05 10:42:02;;;;;;;7.43;4.80;;;;;;;26.12;70.79;93489.63;5087712;28;20048;-74
2023/06/05 10:44:43;;;;;;;7.25;5.10;;;;;;;26.05;69.22;93494.50;5088349;28;20044;-74
2023/06/05 10:47:58;;;;;;;7.10;5.53;;;;;;;26.36;73.12;93485.09;5088043;28;20052;-74
2023/06/05 10:50:27;;;;;;;7.88;5.10;;;;;;;26.60;74.51;93482.13;5005610;28;20515;-74
2023/06/05 10:52:57;;;;;;;7.85;5.45;;;;;;;26.71;72.85;93487.13;5070633;28;20043;-74
2023/06/05 10:55:25;;;;;;;8.30;6.22;;;;;;;27.03;73.26;93479.97;5087813;28;20139;-74
2023/06/05 10:58:08;;;;;;;7.15;5.30;;;;;;;26.97;71.34;93481.19;5087446;28;20052;-74
2023/06/05 11:00:36;;;;;;;8.60;5.72;;;;;;;26.85;69.87;93481.75;5087318;28;20090;-75
2023/06/05 11:03:05;;;;;;;7.50;4.95;;;;;;;26.83;67.42;93476.75;5088315;28;20051;-75
2023/06/05 11:05:33;;;;;;;11.60;5.10;;;;;;;26.79;71.65;93481.09;5087536;28;20043;-75
2023/06/05 11:08:18;;;;;;;8.05;5.18;;;;;;;26.89;69.78;93480.03;5088186;28;20051;-75
2023/06/05 11:11:13;;;;;;;9.05;5.50;;;;;;;27.05;70.96;93464.59;5087264;28;20090;-74
2023/06/05 11:13:55;;;;;;;8.18;5.10;;;;;;;27.02;69.64;93462.59;5041511;28;20051;-74
2023/06/05 11:16:31;;;;;;;10.25;5.65;;;;;;;26.96;70.21;93469.84;5088162;28;20056;-75
2023/06/05 11:19:36;;;;;;;6.63;5.15;;;;;;;26.99;69.24;93471.09;5087737;28;20071;-74
2023/06/05 11:22:04;;;;;;;6.28;4.25;;;;;;;26.97;64.86;93479.31;5087962;28;20071;-75
2023/06/05 11:24:31;;;;;;;6.93;5.18;;;;;;;26.88;66.06;93463.44;5087598;28;20475;-75
2023/06/05 11:26:57;;;;;;;6.97;4.63;;;;;;;25.97;64.85;93472.31;5087283;28;20048;-75
2023/06/05 11:29:26;;;;;;;6.82;5.28;;;;;;;26.05;67.57;93470.06;5087814;28;20044;-75